sensor_id;sensor_type;location;lat;lon;timestamp;P1;durP1;ratioP1;P2;durP2;ratioP2
72974;SDS011;61166;54.228;37.632;2022-09-03T00:10:30;3.92;;;1.80;;
72974;SDS011;61166;54.228;37.632;2022-09-03T00:13:04;3.45;;;1.77;;
72974;SDS011;61166;54.228;37.632;2022-09-03T00:15:33;4.03;;;1.50;;
72974;SDS011;61166;54.228;37.632;2022-09-03T00:18:12;3.78;;;1.40;;
72974;SDS011;61166;54.228;37.632;2022-09-03T00:20:53;4.57;;;1.70;;
72974;SDS011;61166;54.228;37.632;2022-09-03T00:23:24;4.85;;;1.80;;
72974;SDS011;61166;54.228;37.632;2022-09-03T00:26:00;5.05;;;1.58;;
72974;SDS011;61166;54.228;37.632;2022-09-03T00:28:43;5.30;;;2.15;;
72974;SDS011;61166;54.228;37.632;2022-09-03T00:31:13;7.93;;;2.65;;
72974;SDS011;61166;54.228;37.632;2022-09-03T00:33:42;9.45;;;3.75;;
72974;SDS011;61166;54.228;37.632;2022-09-03T00:38:39;17.73;;;8.70;;
72974;SDS011;61166;54.228;37.632;2022-09-03T00:51:38;37.40;;;15.65;;
72974;SDS011;61166;54.228;37.632;2022-09-03T00:56:41;40.13;;;16.60;;
72974;SDS011;61166;54.228;37.632;2022-09-03T00:59:15;44.15;;;17.50;;
72974;SDS011;61166;54.228;37.632;2022-09-03T01:15:16;32.08;;;14.02;;
72974;SDS011;61166;54.228;37.632;2022-09-03T01:20:50;30.05;;;11.82;;
72974;SDS011;61166;54.228;37.632;2022-09-03T01:26:34;40.88;;;14.63;;
72974;SDS011;61166;54.228;37.632;2022-09-03T01:29:27;35.38;;;13.88;;
72974;SDS011;61166;54.228;37.632;2022-09-03T01:40:04;59.97;;;19.38;;
72974;SDS011;61166;54.228;37.632;2022-09-03T01:43:13;58.28;;;18.80;;
72974;SDS011;61166;54.228;37.632;2022-09-03T01:46:01;78.68;;;25.30;;
72974;SDS011;61166;54.228;37.632;2022-09-03T01:48:50;86.18;;;26.70;;
72974;SDS011;61166;54.228;37.632;2022-09-03T01:51:28;77.40;;;24.98;;
72974;SDS011;61166;54.228;37.632;2022-09-03T02:04:54;39.42;;;13.82;;
72974;SDS011;61166;54.228;37.632;2022-09-03T02:07:20;28.77;;;9.52;;
72974;SDS011;61166;54.228;37.632;2022-09-03T02:09:46;25.40;;;7.55;;
72974;SDS011;61166;54.228;37.632;2022-09-03T02:12:13;26.90;;;7.73;;
72974;SDS011;61166;54.228;37.632;2022-09-03T02:14:40;40.05;;;10.32;;
72974;SDS011;61166;54.228;37.632;2022-09-03T02:17:06;28.45;;;8.10;;
72974;SDS011;61166;54.228;37.632;2022-09-03T02:19:32;30.83;;;10.57;;
72974;SDS011;61166;54.228;37.632;2022-09-03T02:21:58;30.88;;;8.70;;
72974;SDS011;61166;54.228;37.632;2022-09-03T02:24:24;21.50;;;6.77;;
72974;SDS011;61166;54.228;37.632;2022-09-03T02:26:50;22.67;;;7.18;;
72974;SDS011;61166;54.228;37.632;2022-09-03T02:29:15;32.07;;;9.17;;
72974;SDS011;61166;54.228;37.632;2022-09-03T02:31:41;35.43;;;10.80;;
72974;SDS011;61166;54.228;37.632;2022-09-03T02:34:06;33.17;;;11.55;;
72974;SDS011;61166;54.228;37.632;2022-09-03T02:36:36;47.28;;;14.95;;
72974;SDS011;61166;54.228;37.632;2022-09-03T02:39:03;43.58;;;14.95;;
72974;SDS011;61166;54.228;37.632;2022-09-03T02:41:29;52.10;;;18.92;;
72974;SDS011;61166;54.228;37.632;2022-09-03T02:46:40;55.00;;;19.75;;
72974;SDS011;61166;54.228;37.632;2022-09-03T02:49:07;51.27;;;19.10;;
72974;SDS011;61166;54.228;37.632;2022-09-03T02:51:37;26.23;;;12.55;;
72974;SDS011;61166;54.228;37.632;2022-09-03T02:54:02;25.75;;;11.35;;
72974;SDS011;61166;54.228;37.632;2022-09-03T02:56:28;20.88;;;10.63;;
72974;SDS011;61166;54.228;37.632;2022-09-03T02:58:53;21.17;;;9.47;;
72974;SDS011;61166;54.228;37.632;2022-09-03T03:01:19;24.73;;;12.73;;
72974;SDS011;61166;54.228;37.632;2022-09-03T03:03:44;22.00;;;10.95;;
72974;SDS011;61166;54.228;37.632;2022-09-03T03:06:09;18.90;;;9.60;;
72974;SDS011;61166;54.228;37.632;2022-09-03T03:08:36;21.08;;;10.93;;
72974;SDS011;61166;54.228;37.632;2022-09-03T03:11:01;17.43;;;9.93;;
72974;SDS011;61166;54.228;37.632;2022-09-03T03:13:27;15.13;;;11.30;;
72974;SDS011;61166;54.228;37.632;2022-09-03T03:15:57;16.95;;;13.52;;
72974;SDS011;61166;54.228;37.632;2022-09-03T03:18:23;12.63;;;9.30;;
72974;SDS011;61166;54.228;37.632;2022-09-03T03:20:49;10.68;;;9.60;;
72974;SDS011;61166;54.228;37.632;2022-09-03T03:23:15;10.93;;;9.40;;
72974;SDS011;61166;54.228;37.632;2022-09-03T03:25:41;14.80;;;11.80;;
72974;SDS011;61166;54.228;37.632;2022-09-03T03:28:06;13.20;;;11.07;;
72974;SDS011;61166;54.228;37.632;2022-09-03T03:30:32;13.40;;;11.75;;
72974;SDS011;61166;54.228;37.632;2022-09-03T03:33:01;13.30;;;12.10;;
72974;SDS011;61166;54.228;37.632;2022-09-03T03:35:26;12.77;;;11.67;;
72974;SDS011;61166;54.228;37.632;2022-09-03T03:37:51;15.63;;;14.47;;
72974;SDS011;61166;54.228;37.632;2022-09-03T03:40:17;12.90;;;11.90;;
72974;SDS011;61166;54.228;37.632;2022-09-03T03:42:42;15.50;;;14.10;;
72974;SDS011;61166;54.228;37.632;2022-09-03T03:45:07;17.90;;;16.20;;
72974;SDS011;61166;54.228;37.632;2022-09-03T03:47:34;19.03;;;17.20;;
72974;SDS011;61166;54.228;37.632;2022-09-03T03:49:59;18.00;;;16.27;;
72974;SDS011;61166;54.228;37.632;2022-09-03T03:52:25;19.77;;;18.00;;
72974;SDS011;61166;54.228;37.632;2022-09-03T03:54:51;19.33;;;17.52;;
72974;SDS011;61166;54.228;37.632;2022-09-03T03:57:16;17.33;;;15.90;;
72974;SDS011;61166;54.228;37.632;2022-09-03T03:59:43;19.23;;;17.58;;
72974;SDS011;61166;54.228;37.632;2022-09-03T04:02:08;19.03;;;17.73;;
72974;SDS011;61166;54.228;37.632;2022-09-03T04:04:34;17.67;;;16.30;;
72974;SDS011;61166;54.228;37.632;2022-09-03T04:06:59;19.17;;;17.63;;
72974;SDS011;61166;54.228;37.632;2022-09-03T04:09:24;20.23;;;18.53;;
72974;SDS011;61166;54.228;37.632;2022-09-03T04:11:50;19.73;;;18.13;;
72974;SDS011;61166;54.228;37.632;2022-09-03T04:14:15;17.17;;;15.57;;
72974;SDS011;61166;54.228;37.632;2022-09-03T04:16:42;18.83;;;17.23;;
72974;SDS011;61166;54.228;37.632;2022-09-03T04:19:07;21.03;;;19.20;;
72974;SDS011;61166;54.228;37.632;2022-09-03T04:21:32;22.40;;;20.63;;
72974;SDS011;61166;54.228;37.632;2022-09-03T04:23:58;18.37;;;16.67;;
72974;SDS011;61166;54.228;37.632;2022-09-03T04:26:25;16.48;;;15.05;;
72974;SDS011;61166;54.228;37.632;2022-09-03T04:28:50;18.10;;;16.80;;
72974;SDS011;61166;54.228;37.632;2022-09-03T04:31:16;15.93;;;14.87;;
72974;SDS011;61166;54.228;37.632;2022-09-03T04:33:42;12.52;;;11.73;;
72974;SDS011;61166;54.228;37.632;2022-09-03T04:36:08;12.37;;;11.60;;
72974;SDS011;61166;54.228;37.632;2022-09-03T04:38:35;14.00;;;13.20;;
72974;SDS011;61166;54.228;37.632;2022-09-03T04:41:00;12.40;;;11.50;;
72974;SDS011;61166;54.228;37.632;2022-09-03T04:43:26;12.48;;;11.50;;
72974;SDS011;61166;54.228;37.632;2022-09-03T04:45:55;11.27;;;10.30;;
72974;SDS011;61166;54.228;37.632;2022-09-03T04:48:20;10.25;;;9.25;;
72974;SDS011;61166;54.228;37.632;2022-09-03T04:50:45;11.10;;;10.20;;
72974;SDS011;61166;54.228;37.632;2022-09-03T04:53:10;10.43;;;9.73;;
72974;SDS011;61166;54.228;37.632;2022-09-03T04:55:36;10.37;;;9.47;;
72974;SDS011;61166;54.228;37.632;2022-09-03T04:58:02;11.55;;;10.63;;
72974;SDS011;61166;54.228;37.632;2022-09-03T05:00:28;11.05;;;10.25;;
72974;SDS011;61166;54.228;37.632;2022-09-03T05:02:53;11.67;;;10.70;;
72974;SDS011;61166;54.228;37.632;2022-09-03T05:05:18;12.77;;;11.73;;
72974;SDS011;61166;54.228;37.632;2022-09-03T05:07:43;13.10;;;11.77;;
72974;SDS011;61166;54.228;37.632;2022-09-03T05:10:10;11.80;;;10.80;;
72974;SDS011;61166;54.228;37.632;2022-09-03T05:12:44;11.48;;;10.57;;
72974;SDS011;61166;54.228;37.632;2022-09-03T05:15:09;10.17;;;9.37;;
72974;SDS011;61166;54.228;37.632;2022-09-03T05:17:35;10.50;;;9.60;;
72974;SDS011;61166;54.228;37.632;2022-09-03T05:20:02;11.70;;;10.83;;
72974;SDS011;61166;54.228;37.632;2022-09-03T05:22:28;10.68;;;9.95;;
72974;SDS011;61166;54.228;37.632;2022-09-03T05:24:53;12.33;;;11.53;;
72974;SDS011;61166;54.228;37.632;2022-09-03T05:27:20;10.43;;;9.63;;
72974;SDS011;61166;54.228;37.632;2022-09-03T05:29:45;10.30;;;8.05;;
72974;SDS011;61166;54.228;37.632;2022-09-03T05:32:11;9.83;;;9.23;;
72974;SDS011;61166;54.228;37.632;2022-09-03T05:34:41;9.97;;;9.27;;
72974;SDS011;61166;54.228;37.632;2022-09-03T05:37:06;9.77;;;9.18;;
72974;SDS011;61166;54.228;37.632;2022-09-03T05:39:31;10.23;;;9.63;;
72974;SDS011;61166;54.228;37.632;2022-09-03T05:41:57;9.23;;;8.60;;
72974;SDS011;61166;54.228;37.632;2022-09-03T05:44:22;8.03;;;7.37;;
72974;SDS011;61166;54.228;37.632;2022-09-03T05:46:48;7.80;;;7.20;;
72974;SDS011;61166;54.228;37.632;2022-09-03T05:49:15;9.07;;;8.27;;
72974;SDS011;61166;54.228;37.632;2022-09-03T05:51:41;8.10;;;7.40;;
72974;SDS011;61166;54.228;37.632;2022-09-03T05:54:08;7.35;;;6.85;;
72974;SDS011;61166;54.228;37.632;2022-09-03T05:56:34;7.43;;;6.80;;
72974;SDS011;61166;54.228;37.632;2022-09-03T05:59:02;7.55;;;6.95;;
72974;SDS011;61166;54.228;37.632;2022-09-03T06:01:32;8.50;;;7.78;;
72974;SDS011;61166;54.228;37.632;2022-09-03T06:06:30;8.23;;;7.63;;
72974;SDS011;61166;54.228;37.632;2022-09-03T06:08:58;6.87;;;6.30;;
72974;SDS011;61166;54.228;37.632;2022-09-03T06:11:29;7.47;;;6.97;;
72974;SDS011;61166;54.228;37.632;2022-09-03T06:14:00;7.72;;;6.95;;
72974;SDS011;61166;54.228;37.632;2022-09-03T06:16:29;6.60;;;6.20;;
72974;SDS011;61166;54.228;37.632;2022-09-03T06:18:55;8.10;;;7.38;;
72974;SDS011;61166;54.228;37.632;2022-09-03T06:21:21;6.80;;;6.37;;
72974;SDS011;61166;54.228;37.632;2022-09-03T06:23:50;7.35;;;6.70;;
72974;SDS011;61166;54.228;37.632;2022-09-03T06:26:19;7.43;;;6.83;;
72974;SDS011;61166;54.228;37.632;2022-09-03T06:28:45;7.18;;;6.60;;
72974;SDS011;61166;54.228;37.632;2022-09-03T06:31:13;6.78;;;5.97;;
72974;SDS011;61166;54.228;37.632;2022-09-03T06:33:41;7.28;;;6.78;;
72974;SDS011;61166;54.228;37.632;2022-09-03T06:36:08;5.85;;;5.45;;
72974;SDS011;61166;54.228;37.632;2022-09-03T06:38:37;12.60;;;11.43;;
72974;SDS011;61166;54.228;37.632;2022-09-03T06:41:07;6.72;;;6.10;;
72974;SDS011;61166;54.228;37.632;2022-09-03T06:43:38;7.07;;;6.57;;
72974;SDS011;61166;54.228;37.632;2022-09-03T06:48:31;6.60;;;6.10;;
72974;SDS011;61166;54.228;37.632;2022-09-03T06:50:59;7.03;;;6.43;;
72974;SDS011;61166;54.228;37.632;2022-09-03T06:53:31;6.78;;;6.15;;
72974;SDS011;61166;54.228;37.632;2022-09-03T06:55:59;5.80;;;5.30;;
72974;SDS011;61166;54.228;37.632;2022-09-03T06:58:30;6.35;;;5.95;;
72974;SDS011;61166;54.228;37.632;2022-09-03T07:01:13;6.00;;;5.60;;
72974;SDS011;61166;54.228;37.632;2022-09-03T07:03:41;5.97;;;5.57;;
72974;SDS011;61166;54.228;37.632;2022-09-03T07:06:09;5.78;;;5.28;;
72974;SDS011;61166;54.228;37.632;2022-09-03T07:08:40;7.10;;;5.53;;
72974;SDS011;61166;54.228;37.632;2022-09-03T07:11:08;5.90;;;5.50;;
72974;SDS011;61166;54.228;37.632;2022-09-03T07:13:44;6.35;;;5.85;;
72974;SDS011;61166;54.228;37.632;2022-09-03T07:16:13;5.78;;;5.35;;
72974;SDS011;61166;54.228;37.632;2022-09-03T07:18:40;6.93;;;6.22;;
72974;SDS011;61166;54.228;37.632;2022-09-03T07:21:09;5.27;;;4.10;;
72974;SDS011;61166;54.228;37.632;2022-09-03T07:23:36;3.90;;;3.60;;
72974;SDS011;61166;54.228;37.632;2022-09-03T07:26:06;5.60;;;4.68;;
72974;SDS011;61166;54.228;37.632;2022-09-03T07:28:34;5.47;;;4.95;;
72974;SDS011;61166;54.228;37.632;2022-09-03T07:31:02;5.50;;;3.53;;
72974;SDS011;61166;54.228;37.632;2022-09-03T07:33:34;5.67;;;3.60;;
72974;SDS011;61166;54.228;37.632;2022-09-03T07:36:03;3.33;;;1.92;;
72974;SDS011;61166;54.228;37.632;2022-09-03T07:38:30;3.60;;;2.50;;
72974;SDS011;61166;54.228;37.632;2022-09-03T07:40:56;2.58;;;2.30;;
72974;SDS011;61166;54.228;37.632;2022-09-03T07:43:23;3.50;;;2.63;;
72974;SDS011;61166;54.228;37.632;2022-09-03T07:45:50;5.70;;;2.97;;
72974;SDS011;61166;54.228;37.632;2022-09-03T07:48:16;3.73;;;2.43;;
72974;SDS011;61166;54.228;37.632;2022-09-03T07:50:41;3.17;;;2.67;;
72974;SDS011;61166;54.228;37.632;2022-09-03T07:53:07;2.87;;;2.67;;
72974;SDS011;61166;54.228;37.632;2022-09-03T07:55:32;3.55;;;3.00;;
72974;SDS011;61166;54.228;37.632;2022-09-03T07:57:58;5.70;;;2.20;;
72974;SDS011;61166;54.228;37.632;2022-09-03T08:00:24;2.43;;;2.20;;
72974;SDS011;61166;54.228;37.632;2022-09-03T08:02:50;3.50;;;1.60;;
72974;SDS011;61166;54.228;37.632;2022-09-03T08:05:15;3.17;;;1.67;;
72974;SDS011;61166;54.228;37.632;2022-09-03T08:07:44;3.00;;;1.70;;
72974;SDS011;61166;54.228;37.632;2022-09-03T08:10:09;5.57;;;1.80;;
72974;SDS011;61166;54.228;37.632;2022-09-03T08:12:34;4.80;;;1.60;;
72974;SDS011;61166;54.228;37.632;2022-09-03T08:15:00;3.13;;;1.80;;
72974;SDS011;61166;54.228;37.632;2022-09-03T08:17:25;4.25;;;1.40;;
72974;SDS011;61166;54.228;37.632;2022-09-03T08:19:50;3.10;;;2.17;;
72974;SDS011;61166;54.228;37.632;2022-09-03T08:22:15;5.57;;;2.63;;
72974;SDS011;61166;54.228;37.632;2022-09-03T08:24:41;4.70;;;1.80;;
72974;SDS011;61166;54.228;37.632;2022-09-03T08:27:07;3.40;;;1.80;;
72974;SDS011;61166;54.228;37.632;2022-09-03T08:29:32;2.63;;;1.40;;
72974;SDS011;61166;54.228;37.632;2022-09-03T08:31:57;3.50;;;2.30;;
72974;SDS011;61166;54.228;37.632;2022-09-03T08:34:22;3.87;;;2.30;;
72974;SDS011;61166;54.228;37.632;2022-09-03T08:36:48;3.80;;;2.20;;
72974;SDS011;61166;54.228;37.632;2022-09-03T08:39:14;3.97;;;2.67;;
72974;SDS011;61166;54.228;37.632;2022-09-03T08:47:01;3.53;;;2.50;;
72974;SDS011;61166;54.228;37.632;2022-09-03T08:52:21;3.30;;;3.00;;
72974;SDS011;61166;54.228;37.632;2022-09-03T08:57:50;4.53;;;4.13;;
72974;SDS011;61166;54.228;37.632;2022-09-03T09:00:21;4.05;;;3.40;;
72974;SDS011;61166;54.228;37.632;2022-09-03T09:05:16;4.23;;;3.40;;
72974;SDS011;61166;54.228;37.632;2022-09-03T09:08:01;3.90;;;3.50;;
72974;SDS011;61166;54.228;37.632;2022-09-03T09:10:48;3.58;;;3.28;;
72974;SDS011;61166;54.228;37.632;2022-09-03T09:13:55;3.70;;;2.97;;
72974;SDS011;61166;54.228;37.632;2022-09-03T09:16:37;4.20;;;3.80;;
72974;SDS011;61166;54.228;37.632;2022-09-03T09:19:12;3.75;;;3.45;;
72974;SDS011;61166;54.228;37.632;2022-09-03T09:24:46;3.65;;;3.10;;
72974;SDS011;61166;54.228;37.632;2022-09-03T09:27:14;6.63;;;3.10;;
72974;SDS011;61166;54.228;37.632;2022-09-03T09:29:41;3.17;;;2.87;;
72974;SDS011;61166;54.228;37.632;2022-09-03T09:32:10;2.90;;;2.70;;
72974;SDS011;61166;54.228;37.632;2022-09-03T09:34:38;3.90;;;2.90;;
72974;SDS011;61166;54.228;37.632;2022-09-03T09:37:07;10.73;;;3.22;;
72974;SDS011;61166;54.228;37.632;2022-09-03T09:39:35;3.47;;;2.65;;
72974;SDS011;61166;54.228;37.632;2022-09-03T09:42:04;4.00;;;2.47;;
72974;SDS011;61166;54.228;37.632;2022-09-03T09:44:39;3.50;;;3.20;;
72974;SDS011;61166;54.228;37.632;2022-09-03T09:49:51;4.10;;;2.83;;
72974;SDS011;61166;54.228;37.632;2022-09-03T09:52:22;4.28;;;2.80;;
72974;SDS011;61166;54.228;37.632;2022-09-03T09:54:50;3.93;;;3.40;;
72974;SDS011;61166;54.228;37.632;2022-09-03T09:57:17;2.78;;;1.90;;
72974;SDS011;61166;54.228;37.632;2022-09-03T09:59:46;2.63;;;2.15;;
72974;SDS011;61166;54.228;37.632;2022-09-03T10:04:38;6.10;;;2.50;;
72974;SDS011;61166;54.228;37.632;2022-09-03T10:09:39;5.57;;;1.60;;
72974;SDS011;61166;54.228;37.632;2022-09-03T10:14:57;3.43;;;1.47;;
72974;SDS011;61166;54.228;37.632;2022-09-03T10:20:18;3.13;;;1.58;;
72974;SDS011;61166;54.228;37.632;2022-09-03T10:25:35;2.63;;;1.38;;
72974;SDS011;61166;54.228;37.632;2022-09-03T10:28:03;2.83;;;1.20;;
72974;SDS011;61166;54.228;37.632;2022-09-03T10:30:29;4.57;;;1.48;;
72974;SDS011;61166;54.228;37.632;2022-09-03T10:35:29;2.47;;;1.00;;
72974;SDS011;61166;54.228;37.632;2022-09-03T10:43:39;7.00;;;1.20;;
72974;SDS011;61166;54.228;37.632;2022-09-03T10:51:04;11.68;;;4.00;;
72974;SDS011;61166;54.228;37.632;2022-09-03T10:56:15;5.13;;;1.70;;
72974;SDS011;61166;54.228;37.632;2022-09-03T11:03:55;6.67;;;3.37;;
72974;SDS011;61166;54.228;37.632;2022-09-03T11:06:27;8.00;;;2.78;;
72974;SDS011;61166;54.228;37.632;2022-09-03T11:08:57;11.80;;;4.53;;
72974;SDS011;61166;54.228;37.632;2022-09-03T11:11:32;6.07;;;3.20;;
72974;SDS011;61166;54.228;37.632;2022-09-03T11:14:08;4.93;;;2.75;;
72974;SDS011;61166;54.228;37.632;2022-09-03T11:16:39;3.45;;;1.73;;
72974;SDS011;61166;54.228;37.632;2022-09-03T11:19:07;2.97;;;1.38;;
72974;SDS011;61166;54.228;37.632;2022-09-03T11:21:35;2.95;;;1.40;;
72974;SDS011;61166;54.228;37.632;2022-09-03T11:26:30;3.90;;;2.13;;
72974;SDS011;61166;54.228;37.632;2022-09-03T11:36:40;4.57;;;2.30;;
72974;SDS011;61166;54.228;37.632;2022-09-03T11:39:39;3.58;;;1.40;;
72974;SDS011;61166;54.228;37.632;2022-09-03T11:41:58;3.95;;;1.40;;
72974;SDS011;61166;54.228;37.632;2022-09-03T11:44:23;2.47;;;1.40;;
72974;SDS011;61166;54.228;37.632;2022-09-03T11:46:55;3.83;;;1.73;;
72974;SDS011;61166;54.228;37.632;2022-09-03T11:49:26;6.38;;;2.42;;
72974;SDS011;61166;54.228;37.632;2022-09-03T11:51:59;7.33;;;2.00;;
72974;SDS011;61166;54.228;37.632;2022-09-03T11:54:25;4.78;;;1.52;;
72974;SDS011;61166;54.228;37.632;2022-09-03T11:57:08;2.63;;;1.30;;
72974;SDS011;61166;54.228;37.632;2022-09-03T11:59:35;2.80;;;1.55;;
72974;SDS011;61166;54.228;37.632;2022-09-03T12:02:02;4.93;;;1.40;;
72974;SDS011;61166;54.228;37.632;2022-09-03T12:09:49;3.97;;;1.40;;
72974;SDS011;61166;54.228;37.632;2022-09-03T12:19:48;2.30;;;1.37;;
72974;SDS011;61166;54.228;37.632;2022-09-03T12:22:15;2.30;;;1.17;;
72974;SDS011;61166;54.228;37.632;2022-09-03T12:24:41;3.90;;;1.30;;
72974;SDS011;61166;54.228;37.632;2022-09-03T12:27:09;2.28;;;1.10;;
72974;SDS011;61166;54.228;37.632;2022-09-03T12:29:36;3.28;;;1.25;;
72974;SDS011;61166;54.228;37.632;2022-09-03T12:32:08;4.97;;;1.77;;
72974;SDS011;61166;54.228;37.632;2022-09-03T12:34:35;4.65;;;1.60;;
72974;SDS011;61166;54.228;37.632;2022-09-03T12:37:01;4.67;;;1.60;;
72974;SDS011;61166;54.228;37.632;2022-09-03T12:39:27;3.30;;;1.60;;
72974;SDS011;61166;54.228;37.632;2022-09-03T12:44:27;2.90;;;1.20;;
72974;SDS011;61166;54.228;37.632;2022-09-03T12:49:46;4.13;;;1.92;;
72974;SDS011;61166;54.228;37.632;2022-09-03T12:57:51;2.67;;;1.10;;
72974;SDS011;61166;54.228;37.632;2022-09-03T13:00:16;2.03;;;0.98;;
72974;SDS011;61166;54.228;37.632;2022-09-03T13:02:50;3.30;;;1.17;;
72974;SDS011;61166;54.228;37.632;2022-09-03T13:05:28;4.10;;;1.38;;
72974;SDS011;61166;54.228;37.632;2022-09-03T13:07:56;20.92;;;6.30;;
72974;SDS011;61166;54.228;37.632;2022-09-03T13:12:48;5.03;;;1.20;;
72974;SDS011;61166;54.228;37.632;2022-09-03T13:15:21;6.60;;;1.80;;
72974;SDS011;61166;54.228;37.632;2022-09-03T13:25:21;4.18;;;1.17;;
72974;SDS011;61166;54.228;37.632;2022-09-03T13:30:15;3.23;;;1.10;;
72974;SDS011;61166;54.228;37.632;2022-09-03T13:32:46;4.17;;;1.20;;
72974;SDS011;61166;54.228;37.632;2022-09-03T13:42:59;6.25;;;1.20;;
72974;SDS011;61166;54.228;37.632;2022-09-03T13:45:40;3.30;;;1.00;;
72974;SDS011;61166;54.228;37.632;2022-09-03T13:48:19;6.13;;;1.55;;
72974;SDS011;61166;54.228;37.632;2022-09-03T13:56:31;2.90;;;0.80;;
72974;SDS011;61166;54.228;37.632;2022-09-03T13:59:10;5.73;;;1.20;;
72974;SDS011;61166;54.228;37.632;2022-09-03T14:04:24;5.07;;;1.02;;
72974;SDS011;61166;54.228;37.632;2022-09-03T14:09:29;8.25;;;1.20;;
72974;SDS011;61166;54.228;37.632;2022-09-03T14:12:18;8.47;;;1.33;;
72974;SDS011;61166;54.228;37.632;2022-09-03T14:15:00;7.63;;;1.60;;
72974;SDS011;61166;54.228;37.632;2022-09-03T14:17:35;2.72;;;1.00;;
72974;SDS011;61166;54.228;37.632;2022-09-03T14:20:11;1.92;;;0.75;;
72974;SDS011;61166;54.228;37.632;2022-09-03T14:22:56;2.75;;;0.80;;
72974;SDS011;61166;54.228;37.632;2022-09-03T14:25:26;4.43;;;1.10;;
72974;SDS011;61166;54.228;37.632;2022-09-03T14:27:52;3.17;;;1.10;;
72974;SDS011;61166;54.228;37.632;2022-09-03T14:30:29;2.88;;;0.60;;
72974;SDS011;61166;54.228;37.632;2022-09-03T14:35:30;2.67;;;0.70;;
72974;SDS011;61166;54.228;37.632;2022-09-03T14:50:40;3.33;;;0.97;;
72974;SDS011;61166;54.228;37.632;2022-09-03T14:53:12;4.28;;;0.90;;
72974;SDS011;61166;54.228;37.632;2022-09-03T15:01:33;2.95;;;0.70;;
72974;SDS011;61166;54.228;37.632;2022-09-03T15:04:08;8.88;;;6.70;;
72974;SDS011;61166;54.228;37.632;2022-09-03T15:11:59;10.32;;;7.32;;
72974;SDS011;61166;54.228;37.632;2022-09-03T15:14:26;12.93;;;8.40;;
72974;SDS011;61166;54.228;37.632;2022-09-03T15:17:00;26.90;;;23.33;;
72974;SDS011;61166;54.228;37.632;2022-09-03T15:19:41;3.72;;;2.15;;
72974;SDS011;61166;54.228;37.632;2022-09-03T15:24:57;8.18;;;1.65;;
72974;SDS011;61166;54.228;37.632;2022-09-03T15:30:14;11.98;;;5.85;;
72974;SDS011;61166;54.228;37.632;2022-09-03T15:35:08;11.90;;;7.80;;
72974;SDS011;61166;54.228;37.632;2022-09-03T15:37:38;7.40;;;4.53;;
72974;SDS011;61166;54.228;37.632;2022-09-03T15:42:31;4.97;;;1.43;;
72974;SDS011;61166;54.228;37.632;2022-09-03T15:45:01;2.30;;;1.10;;
72974;SDS011;61166;54.228;37.632;2022-09-03T15:50:15;6.47;;;3.50;;
72974;SDS011;61166;54.228;37.632;2022-09-03T15:52:53;11.18;;;4.15;;
72974;SDS011;61166;54.228;37.632;2022-09-03T15:55:24;10.70;;;4.60;;
72974;SDS011;61166;54.228;37.632;2022-09-03T16:03:12;2.92;;;0.80;;
72974;SDS011;61166;54.228;37.632;2022-09-03T16:06:05;3.55;;;1.67;;
72974;SDS011;61166;54.228;37.632;2022-09-03T16:11:53;5.35;;;2.08;;
72974;SDS011;61166;54.228;37.632;2022-09-03T16:14:22;5.95;;;1.85;;
72974;SDS011;61166;54.228;37.632;2022-09-03T16:21:59;5.50;;;2.40;;
72974;SDS011;61166;54.228;37.632;2022-09-03T16:24:30;7.07;;;2.55;;
72974;SDS011;61166;54.228;37.632;2022-09-03T16:27:06;7.40;;;2.22;;
72974;SDS011;61166;54.228;37.632;2022-09-03T16:29:33;9.20;;;2.35;;
72974;SDS011;61166;54.228;37.632;2022-09-03T16:42:19;14.93;;;4.20;;
72974;SDS011;61166;54.228;37.632;2022-09-03T16:48:27;7.87;;;2.63;;
72974;SDS011;61166;54.228;37.632;2022-09-03T16:50:55;6.90;;;3.40;;
72974;SDS011;61166;54.228;37.632;2022-09-03T16:53:34;11.85;;;5.22;;
72974;SDS011;61166;54.228;37.632;2022-09-03T17:29:12;20.93;;;8.63;;
72974;SDS011;61166;54.228;37.632;2022-09-03T17:31:49;21.00;;;10.20;;
72974;SDS011;61166;54.228;37.632;2022-09-03T17:36:58;26.30;;;12.13;;
72974;SDS011;61166;54.228;37.632;2022-09-03T17:42:10;35.35;;;15.50;;
72974;SDS011;61166;54.228;37.632;2022-09-03T17:49:53;55.40;;;22.73;;
72974;SDS011;61166;54.228;37.632;2022-09-03T17:54:52;50.13;;;22.98;;
72974;SDS011;61166;54.228;37.632;2022-09-03T17:57:21;47.67;;;24.03;;
72974;SDS011;61166;54.228;37.632;2022-09-03T17:59:54;44.42;;;20.70;;
72974;SDS011;61166;54.228;37.632;2022-09-03T18:04:54;38.43;;;16.63;;
72974;SDS011;61166;54.228;37.632;2022-09-03T18:07:26;48.72;;;23.00;;
72974;SDS011;61166;54.228;37.632;2022-09-03T18:10:07;50.40;;;20.95;;
72974;SDS011;61166;54.228;37.632;2022-09-03T18:12:37;59.20;;;25.43;;
72974;SDS011;61166;54.228;37.632;2022-09-03T18:15:16;34.00;;;15.10;;
72974;SDS011;61166;54.228;37.632;2022-09-03T18:17:56;39.17;;;18.60;;
72974;SDS011;61166;54.228;37.632;2022-09-03T18:20:22;37.95;;;18.77;;
72974;SDS011;61166;54.228;37.632;2022-09-03T18:23:09;48.00;;;22.02;;
72974;SDS011;61166;54.228;37.632;2022-09-03T18:25:59;52.33;;;25.30;;
72974;SDS011;61166;54.228;37.632;2022-09-03T18:28:46;51.30;;;24.70;;
72974;SDS011;61166;54.228;37.632;2022-09-03T18:31:31;60.88;;;29.38;;
72974;SDS011;61166;54.228;37.632;2022-09-03T18:34:15;67.47;;;33.05;;
72974;SDS011;61166;54.228;37.632;2022-09-03T18:37:01;88.20;;;41.17;;
72974;SDS011;61166;54.228;37.632;2022-09-03T18:39:45;80.00;;;36.10;;
72974;SDS011;61166;54.228;37.632;2022-09-03T18:45:40;78.88;;;39.97;;
72974;SDS011;61166;54.228;37.632;2022-09-03T18:54:16;62.00;;;30.60;;
72974;SDS011;61166;54.228;37.632;2022-09-03T18:57:06;42.20;;;22.85;;
72974;SDS011;61166;54.228;37.632;2022-09-03T19:00:05;46.58;;;23.48;;
72974;SDS011;61166;54.228;37.632;2022-09-03T19:20:19;40.08;;;19.88;;
72974;SDS011;61166;54.228;37.632;2022-09-03T19:23:05;43.93;;;21.70;;
72974;SDS011;61166;54.228;37.632;2022-09-03T19:25:49;100.88;;;39.92;;
72974;SDS011;61166;54.228;37.632;2022-09-03T19:28:35;48.67;;;23.00;;
72974;SDS011;61166;54.228;37.632;2022-09-03T19:34:53;45.40;;;23.23;;
72974;SDS011;61166;54.228;37.632;2022-09-03T19:37:29;46.93;;;21.60;;
72974;SDS011;61166;54.228;37.632;2022-09-03T19:40:31;41.85;;;19.40;;
72974;SDS011;61166;54.228;37.632;2022-09-03T19:52:03;59.60;;;27.40;;
72974;SDS011;61166;54.228;37.632;2022-09-03T19:54:51;62.38;;;30.20;;
72974;SDS011;61166;54.228;37.632;2022-09-03T19:57:35;61.10;;;28.02;;
72974;SDS011;61166;54.228;37.632;2022-09-03T20:00:19;55.72;;;30.30;;
72974;SDS011;61166;54.228;37.632;2022-09-03T20:03:03;70.30;;;35.97;;
72974;SDS011;61166;54.228;37.632;2022-09-03T20:05:47;68.93;;;32.05;;
72974;SDS011;61166;54.228;37.632;2022-09-03T20:08:31;71.55;;;35.00;;
72974;SDS011;61166;54.228;37.632;2022-09-03T20:11:17;57.90;;;26.98;;
72974;SDS011;61166;54.228;37.632;2022-09-03T20:13:42;45.83;;;22.88;;
72974;SDS011;61166;54.228;37.632;2022-09-03T20:17:10;51.15;;;23.58;;
72974;SDS011;61166;54.228;37.632;2022-09-03T20:30:06;42.20;;;19.83;;
72974;SDS011;61166;54.228;37.632;2022-09-03T20:46:07;39.17;;;19.00;;
72974;SDS011;61166;54.228;37.632;2022-09-03T20:48:45;39.63;;;18.08;;
72974;SDS011;61166;54.228;37.632;2022-09-03T20:51:13;34.22;;;18.65;;
72974;SDS011;61166;54.228;37.632;2022-09-03T21:01:43;36.83;;;16.73;;